createdAt,value
2019-02-02T00:01:30.095Z,43.77
2019-02-02T00:04:05.371Z,43.53
2019-02-02T00:06:40.245Z,42.27
2019-02-02T00:09:15.150Z,43.80
2019-02-02T00:11:50.127Z,43.00
2019-02-02T00:14:24.849Z,43.27
2019-02-02T00:16:59.682Z,43.23
2019-02-02T00:19:34.520Z,42.73
2019-02-02T00:22:09.402Z,43.67
2019-02-02T00:24:44.195Z,42.87
2019-02-02T00:27:19.088Z,44.70
2019-02-02T00:29:53.815Z,42.40
2019-02-02T00:32:28.790Z,42.13
2019-02-02T00:35:03.690Z,44.63
2019-02-02T00:37:38.608Z,43.07
2019-02-02T00:40:13.704Z,44.13
2019-02-02T00:42:48.590Z,43.50
2019-02-02T00:45:23.598Z,43.03
2019-02-02T00:47:58.525Z,43.97
2019-02-02T00:50:33.338Z,44.90
2019-02-02T00:53:08.139Z,45.77
2019-02-02T00:55:42.922Z,44.23
2019-02-02T00:58:17.723Z,43.47
2019-02-02T01:00:52.589Z,43.87
2019-02-02T01:03:27.482Z,43.80
2019-02-02T01:06:04.817Z,43.37
2019-02-02T01:08:39.562Z,42.90
2019-02-02T01:11:14.559Z,42.80
2019-02-02T01:13:49.452Z,42.83
2019-02-02T01:16:24.392Z,42.60
2019-02-02T01:18:59.186Z,42.57
2019-02-02T01:21:33.999Z,42.93
2019-02-02T01:24:08.863Z,42.40
2019-02-02T01:26:44.718Z,43.10
2019-02-02T01:29:19.583Z,42.30
2019-02-02T01:31:54.390Z,41.90
2019-02-02T01:34:29.172Z,41.43
2019-02-02T01:37:05.014Z,45.13
2019-02-02T01:39:39.870Z,43.90
2019-02-02T01:42:14.669Z,42.80
2019-02-02T01:44:49.530Z,42.97
2019-02-02T01:47:24.418Z,41.47
2019-02-02T01:49:59.264Z,42.17
2019-02-02T01:52:33.991Z,40.97
2019-02-02T01:55:09.850Z,42.30
2019-02-02T01:57:44.748Z,41.67
2019-02-02T02:00:23.033Z,41.20
2019-02-02T02:02:57.908Z,42.27
2019-02-02T02:05:33.683Z,43.60
2019-02-02T02:08:08.582Z,42.43
2019-02-02T02:10:43.462Z,42.13
2019-02-02T02:13:18.274Z,42.27
2019-02-02T02:15:53.150Z,42.87
2019-02-02T02:18:27.959Z,41.00
2019-02-02T02:21:02.758Z,41.77
2019-02-02T02:23:37.483Z,41.13
2019-02-02T02:26:12.278Z,41.20
2019-02-02T02:28:47.083Z,40.40
2019-02-02T02:31:21.810Z,39.57
2019-02-02T02:33:57.586Z,42.13
2019-02-02T02:36:32.322Z,42.27
2019-02-02T02:39:08.975Z,49.47
2019-02-02T02:41:43.717Z,45.80
2019-02-02T02:44:18.511Z,42.33
2019-02-02T02:46:53.331Z,43.17
2019-02-02T02:49:28.050Z,42.63
2019-02-02T02:52:02.875Z,43.37
2019-02-02T02:54:37.610Z,43.93
2019-02-02T02:57:12.320Z,42.67
2019-02-02T02:59:47.131Z,43.50
2019-02-02T03:02:21.935Z,41.87
2019-02-02T03:04:56.804Z,42.83
2019-02-02T03:07:31.548Z,44.20
2019-02-02T03:10:08.377Z,44.53
2019-02-02T03:12:43.343Z,42.43
2019-02-02T03:15:18.560Z,42.30
2019-02-02T03:17:53.451Z,42.30
2019-02-02T03:20:34.852Z,40.77
2019-02-02T03:23:09.599Z,44.13
2019-02-02T03:25:44.534Z,40.30
2019-02-02T03:28:19.330Z,39.67
2019-02-02T03:30:55.160Z,40.73
2019-02-02T03:33:30.069Z,40.77
2019-02-02T03:36:04.957Z,40.27
2019-02-02T03:38:39.868Z,39.83
2019-02-02T03:41:14.759Z,39.77
2019-02-02T03:43:50.742Z,41.70
2019-02-02T03:46:25.627Z,39.63
2019-02-02T03:49:00.527Z,40.67
2019-02-02T03:51:35.416Z,40.33
2019-02-02T03:54:10.195Z,40.33
2019-02-02T03:56:45.005Z,40.90
2019-02-02T03:59:19.849Z,40.63
2019-02-02T04:01:54.776Z,41.57
2019-02-02T04:04:29.747Z,40.57
2019-02-02T04:07:04.648Z,41.10
2019-02-02T04:09:39.426Z,41.20
2019-02-02T04:12:14.334Z,41.83
2019-02-02T04:14:49.138Z,41.63
2019-02-02T04:17:23.968Z,40.87
2019-02-02T04:19:58.855Z,40.77
2019-02-02T04:22:35.690Z,40.17
2019-02-02T04:25:10.632Z,41.23
2019-02-02T04:27:45.459Z,40.63
2019-02-02T04:30:22.641Z,41.13
2019-02-02T04:32:57.566Z,42.77
2019-02-02T04:35:32.385Z,42.43
2019-02-02T04:38:07.274Z,44.87
2019-02-02T04:40:42.207Z,41.47
2019-02-02T04:43:17.108Z,44.20
2019-02-02T04:45:51.852Z,45.13
2019-02-02T04:48:26.607Z,44.40
2019-02-02T04:51:01.431Z,43.33
2019-02-02T04:53:36.184Z,43.23
2019-02-02T04:56:11.007Z,44.60
2019-02-02T04:58:45.840Z,43.60
2019-02-02T05:01:20.732Z,45.63
2019-02-02T05:03:55.647Z,44.80
2019-02-02T05:06:30.540Z,43.83
2019-02-02T05:09:07.983Z,43.70
2019-02-02T05:11:42.731Z,42.33
2019-02-02T05:14:17.561Z,43.37
2019-02-02T05:16:52.306Z,40.07
2019-02-02T05:19:27.063Z,39.87
2019-02-02T05:22:01.815Z,42.47
2019-02-02T05:24:36.591Z,45.03
2019-02-02T05:27:11.488Z,41.47
2019-02-02T05:29:46.331Z,40.73
2019-02-02T05:32:21.260Z,41.93
2019-02-02T05:34:56.107Z,42.43
2019-02-02T05:37:30.990Z,41.17
2019-02-02T05:40:07.368Z,41.20
2019-02-02T05:42:42.268Z,43.47
2019-02-02T05:45:18.368Z,41.80
2019-02-02T05:47:53.267Z,43.17
2019-02-02T05:50:28.180Z,41.23
2019-02-02T05:53:03.092Z,41.70
2019-02-02T05:55:37.993Z,42.07
2019-02-02T05:58:12.767Z,41.17
2019-02-02T06:00:50.482Z,41.10
2019-02-02T06:03:25.400Z,40.97
2019-02-02T06:06:00.231Z,40.20
2019-02-02T06:08:35.592Z,41.60
2019-02-02T06:11:10.495Z,40.57
2019-02-02T06:13:45.387Z,40.47
2019-02-02T06:16:20.271Z,40.43
2019-02-02T06:18:55.091Z,41.50
2019-02-02T06:21:29.963Z,41.60
2019-02-02T06:24:04.936Z,40.40
2019-02-02T06:26:39.842Z,41.27
2019-02-02T06:29:14.603Z,39.63
2019-02-02T06:31:49.424Z,39.70
2019-02-02T06:34:24.262Z,39.43
2019-02-02T06:36:59.167Z,39.97
2019-02-02T06:39:33.915Z,39.73
2019-02-02T06:42:08.729Z,38.87
2019-02-02T06:44:43.654Z,38.27
2019-02-02T06:47:18.481Z,38.50
2019-02-02T07:05:00.883Z,38.13
2019-02-02T07:07:36.875Z,38.00
2019-02-02T07:10:16.267Z,36.93
2019-02-02T07:12:51.139Z,36.27
2019-02-02T07:15:28.476Z,36.73
2019-02-02T07:18:03.346Z,35.73
2019-02-02T07:20:38.079Z,35.83
2019-02-02T07:23:12.903Z,36.13
2019-02-02T07:25:47.625Z,40.80
2019-02-02T07:28:22.532Z,40.87
2019-02-02T07:30:57.479Z,41.97
2019-02-02T07:33:32.404Z,40.40
2019-02-02T07:36:08.600Z,38.57
2019-02-02T07:38:43.405Z,38.77
2019-02-02T07:41:18.215Z,39.10
2019-02-02T07:43:53.025Z,38.60
2019-02-02T07:46:28.795Z,39.07
2019-02-02T07:49:03.557Z,38.77
2019-02-02T07:51:38.524Z,38.73
2019-02-02T07:54:13.263Z,39.27
2019-02-02T07:56:48.006Z,39.40
2019-02-02T07:59:22.719Z,38.13
2019-02-02T08:01:57.607Z,38.67
2019-02-02T08:04:32.412Z,39.20
2019-02-02T08:07:07.391Z,39.37
2019-02-02T08:09:42.164Z,39.23
2019-02-02T08:12:19.476Z,38.80
2019-02-02T08:14:53.851Z,38.70
2019-02-02T08:17:28.656Z,39.20
2019-02-02T08:20:03.865Z,37.83
2019-02-02T08:22:38.692Z,37.27
2019-02-02T08:25:14.347Z,36.30
2019-02-02T08:27:49.264Z,37.40
2019-02-02T08:30:29.119Z,40.37
2019-02-02T08:33:04.307Z,39.40
2019-02-02T08:35:39.235Z,43.93
2019-02-02T08:38:14.072Z,49.70
2019-02-02T08:40:49.066Z,48.50
2019-02-02T08:43:24.011Z,45.80
2019-02-02T08:45:58.742Z,42.30
2019-02-02T08:48:34.604Z,42.17
2019-02-02T08:51:09.822Z,42.60
2019-02-02T08:53:45.784Z,41.90
2019-02-02T08:56:20.599Z,41.80
2019-02-02T08:58:55.475Z,41.97
2019-02-02T09:01:30.367Z,42.10
2019-02-02T09:04:05.339Z,41.00
2019-02-02T09:06:40.159Z,45.03
2019-02-02T09:09:15.011Z,45.27
2019-02-02T09:11:49.920Z,41.83
2019-02-02T09:14:24.744Z,43.03
2019-02-02T09:16:59.547Z,43.43
2019-02-02T09:19:34.304Z,45.17
2019-02-02T09:22:09.242Z,47.30
2019-02-02T09:24:44.054Z,44.37
2019-02-02T09:27:19.848Z,45.33
2019-02-02T09:29:54.659Z,44.50
2019-02-02T09:32:29.439Z,44.00
2019-02-02T09:35:04.550Z,43.33
2019-02-02T09:37:39.459Z,43.83
2019-02-02T09:40:15.801Z,43.30
2019-02-02T09:42:50.600Z,42.43
2019-02-02T09:45:25.487Z,43.03
2019-02-02T09:48:00.320Z,45.70
2019-02-02T09:50:35.070Z,52.37
2019-02-02T09:53:09.879Z,44.17
2019-02-02T09:55:44.697Z,44.23
2019-02-02T09:58:19.439Z,45.00
2019-02-02T10:00:54.238Z,51.40
2019-02-02T10:03:29.128Z,43.00
2019-02-02T10:06:04.164Z,42.77
2019-02-02T10:08:40.079Z,41.83
2019-02-02T10:11:14.903Z,44.70
2019-02-02T10:13:52.037Z,43.13
2019-02-02T10:16:26.243Z,45.60
2019-02-02T10:19:01.682Z,44.60
2019-02-02T10:21:36.407Z,43.57
2019-02-02T10:24:11.227Z,43.43
2019-02-02T10:26:46.119Z,44.70
2019-02-02T10:29:21.031Z,47.10
2019-02-02T10:31:55.818Z,45.43
2019-02-02T10:34:30.563Z,45.93
2019-02-02T10:37:05.459Z,46.67
2019-02-02T10:39:40.212Z,45.23
2019-02-02T10:42:15.079Z,45.53
2019-02-02T10:44:49.964Z,45.57
2019-02-02T10:47:24.863Z,48.93
2019-02-02T10:49:59.934Z,45.53
2019-02-02T10:52:34.904Z,46.43
2019-02-02T10:55:11.067Z,45.80
2019-02-02T10:57:46.951Z,45.93
2019-02-02T11:00:23.883Z,43.83
2019-02-02T11:02:59.006Z,43.03
2019-02-02T11:05:34.149Z,43.43
2019-02-02T11:08:09.333Z,42.90
2019-02-02T11:10:44.484Z,42.07
2019-02-02T11:13:19.464Z,41.80
2019-02-02T11:15:54.702Z,41.70
2019-02-02T11:18:29.748Z,41.03
2019-02-02T11:21:04.812Z,42.57
2019-02-02T11:23:39.660Z,41.37
2019-02-02T11:26:14.734Z,41.07
2019-02-02T11:28:50.017Z,40.50
2019-02-02T11:31:25.299Z,41.83
2019-02-02T11:34:00.567Z,41.43
2019-02-02T11:36:35.428Z,39.93
2019-02-02T11:39:10.352Z,37.47
2019-02-02T11:41:45.280Z,36.50
2019-02-02T11:44:20.256Z,37.27
2019-02-02T11:46:55.393Z,37.13
2019-02-02T11:49:30.184Z,35.87
2019-02-02T11:52:05.197Z,33.60
2019-02-02T11:54:39.920Z,34.20
2019-02-02T11:57:14.931Z,34.27
2019-02-02T11:59:50.052Z,32.27
2019-02-02T12:02:25.042Z,31.30
2019-02-02T12:04:59.992Z,31.03
2019-02-02T12:07:35.338Z,31.50
2019-02-02T12:10:11.872Z,30.83
2019-02-02T12:12:46.824Z,30.83
2019-02-02T12:15:23.326Z,30.50
2019-02-02T12:17:58.210Z,29.93
2019-02-02T12:20:33.678Z,30.07
2019-02-02T12:23:08.663Z,30.07
2019-02-02T12:25:43.569Z,29.13
2019-02-02T12:28:18.462Z,29.33
2019-02-02T12:30:53.403Z,28.70
2019-02-02T12:33:28.431Z,29.13
2019-02-02T12:36:04.043Z,29.33
2019-02-02T12:38:39.164Z,28.80
2019-02-02T12:41:14.290Z,29.70
2019-02-02T12:43:49.217Z,30.53
2019-02-02T12:46:24.066Z,29.50
2019-02-02T12:48:58.848Z,28.73
2019-02-02T12:51:33.827Z,29.07
2019-02-02T12:54:08.807Z,28.87
2019-02-02T12:56:43.866Z,29.67
2019-02-02T12:59:18.754Z,29.33
2019-02-02T13:01:53.988Z,30.30
2019-02-02T13:04:28.851Z,32.60
2019-02-02T13:07:03.881Z,31.30
2019-02-02T13:09:39.036Z,30.23
2019-02-02T13:12:14.099Z,34.90
2019-02-02T13:14:49.612Z,33.20
2019-02-02T13:17:24.666Z,34.40
2019-02-02T13:20:00.298Z,34.77
2019-02-02T13:22:36.284Z,32.97
2019-02-02T13:25:12.899Z,36.87
2019-02-02T13:27:48.291Z,34.00
2019-02-02T13:30:28.771Z,33.37
2019-02-02T13:33:04.101Z,33.87
2019-02-02T13:35:41.683Z,33.67
2019-02-02T13:38:16.851Z,33.23
2019-02-02T13:40:51.748Z,33.17
2019-02-02T13:43:26.934Z,34.20
2019-02-02T13:46:02.256Z,34.33
2019-02-02T13:48:37.495Z,34.80
2019-02-02T13:51:12.335Z,33.67
2019-02-02T13:53:47.609Z,33.43
2019-02-02T13:56:22.717Z,35.10
2019-02-02T13:58:57.808Z,34.60
2019-02-02T14:01:41.759Z,36.17
2019-02-02T14:04:09.523Z,44.30
2019-02-02T14:06:44.349Z,35.53
2019-02-02T14:09:19.252Z,36.17
2019-02-02T14:11:54.232Z,36.90
2019-02-02T14:14:29.039Z,38.37
2019-02-02T14:17:03.932Z,37.63
2019-02-02T14:19:38.772Z,38.10
2019-02-02T14:22:13.711Z,37.20
2019-02-02T14:24:48.695Z,37.17
2019-02-02T14:27:23.723Z,38.20
2019-02-02T14:29:58.740Z,39.33
2019-02-02T14:32:39.811Z,39.77
2019-02-02T14:35:19.623Z,39.90
2019-02-02T14:37:54.893Z,40.77
2019-02-02T14:40:30.564Z,39.57
2019-02-02T14:43:05.740Z,39.50
2019-02-02T14:45:40.684Z,38.57
2019-02-02T14:48:15.484Z,38.47
2019-02-02T14:50:50.292Z,39.27
2019-02-02T14:53:27.227Z,39.30
2019-02-02T14:56:02.037Z,38.97
2019-02-02T14:58:56.215Z,39.80
2019-02-02T15:01:31.067Z,38.70
2019-02-02T15:04:06.033Z,40.03
2019-02-02T15:06:40.940Z,40.43
2019-02-02T15:09:15.760Z,40.07
2019-02-02T15:11:50.608Z,38.97
2019-02-02T15:14:25.511Z,39.47
2019-02-02T15:17:00.388Z,39.73
2019-02-02T15:19:35.571Z,38.63
2019-02-02T15:22:10.724Z,39.27
2019-02-02T15:24:45.716Z,39.87
2019-02-02T15:27:20.576Z,41.20
2019-02-02T15:29:55.659Z,41.53
2019-02-02T15:32:30.652Z,40.60
2019-02-02T15:35:06.487Z,41.77
2019-02-02T15:37:41.525Z,40.83
2019-02-02T15:40:17.441Z,40.00
2019-02-02T15:42:52.232Z,40.93
2019-02-02T15:45:28.447Z,38.73
2019-02-02T15:48:04.855Z,38.37
2019-02-02T15:50:39.672Z,37.73
2019-02-02T15:53:14.564Z,39.13
2019-02-02T15:55:49.430Z,39.23
2019-02-02T15:58:24.464Z,37.63
2019-02-02T16:00:59.319Z,35.47
2019-02-02T16:03:36.445Z,35.77
2019-02-02T16:06:11.393Z,36.70
2019-02-02T16:08:49.831Z,35.70
2019-02-02T16:11:24.779Z,34.87
2019-02-02T16:14:00.514Z,34.23
2019-02-02T16:16:35.468Z,34.23
2019-02-02T16:19:10.550Z,34.43
2019-02-02T16:21:57.486Z,35.77
2019-02-02T16:24:38.479Z,33.97
2019-02-02T16:27:13.669Z,34.83
2019-02-02T16:29:48.475Z,33.40
2019-02-02T16:32:23.519Z,32.80
2019-02-02T16:34:58.611Z,33.80
2019-02-02T16:37:36.263Z,33.80
2019-02-02T16:40:13.694Z,32.30
2019-02-02T16:42:49.203Z,31.83
2019-02-02T16:45:26.764Z,31.13
2019-02-02T16:48:02.043Z,37.40
2019-02-02T16:50:37.460Z,33.00
2019-02-02T16:53:12.943Z,32.97
2019-02-02T16:55:48.535Z,33.17
2019-02-02T16:58:23.639Z,34.80
2019-02-02T17:00:58.479Z,33.60
2019-02-02T17:03:33.479Z,34.70
2019-02-02T17:06:08.575Z,31.80
2019-02-02T17:08:43.480Z,35.30
2019-02-02T17:11:23.850Z,31.60
2019-02-02T17:14:00.515Z,32.67
2019-02-02T17:16:35.921Z,34.10
2019-02-02T17:19:10.894Z,32.03
2019-02-02T17:21:46.329Z,31.87
2019-02-02T17:24:22.190Z,31.10
2019-02-02T17:26:57.131Z,32.17
2019-02-02T17:29:33.209Z,32.13
2019-02-02T17:32:08.371Z,32.77
2019-02-02T17:34:43.512Z,32.57
2019-02-02T17:37:18.521Z,31.57
2019-02-02T17:39:53.558Z,33.93
2019-02-02T17:42:28.584Z,33.30
2019-02-02T17:45:03.828Z,34.43
2019-02-02T17:47:38.999Z,34.23
2019-02-02T17:50:16.304Z,33.30
2019-02-02T17:52:51.942Z,32.40
2019-02-02T17:55:26.939Z,33.33
2019-02-02T17:58:04.103Z,33.23
2019-02-02T18:00:49.822Z,32.97
2019-02-02T18:03:25.371Z,32.43
2019-02-02T18:06:00.468Z,32.23
2019-02-02T18:08:35.538Z,31.70
2019-02-02T18:11:10.915Z,31.47
2019-02-02T18:13:46.253Z,32.23
2019-02-02T18:16:21.835Z,36.33
2019-02-02T18:18:57.075Z,34.20
2019-02-02T18:21:32.499Z,32.67
2019-02-02T18:24:08.248Z,32.97
2019-02-02T18:26:44.195Z,32.90
2019-02-02T18:29:42.595Z,33.17
2019-02-02T18:32:18.351Z,32.80
2019-02-02T18:34:53.311Z,31.70
2019-02-02T18:37:28.588Z,32.60
2019-02-02T18:40:04.560Z,33.07
2019-02-02T18:42:41.482Z,32.43
2019-02-02T18:45:23.246Z,31.30
2019-02-02T18:47:58.510Z,32.27
2019-02-02T18:50:33.871Z,32.33
2019-02-02T18:53:09.485Z,30.87
2019-02-02T18:55:57.552Z,32.63
2019-02-02T18:58:32.985Z,32.07
2019-02-02T19:01:09.547Z,33.60
2019-02-02T19:03:46.327Z,35.07
2019-02-02T19:06:22.604Z,40.37
2019-02-02T19:08:58.849Z,41.03
2019-02-02T19:11:35.128Z,41.77
2019-02-02T19:14:11.511Z,41.43
2019-02-02T19:17:00.496Z,40.83
2019-02-02T19:19:27.525Z,40.60
2019-02-02T19:22:04.155Z,39.90
2019-02-02T19:24:42.291Z,37.57
2019-02-02T19:27:19.572Z,37.73
2019-02-02T19:29:58.657Z,35.67
2019-02-02T19:32:35.942Z,36.63
2019-02-02T19:35:16.317Z,37.27
2019-02-02T19:37:54.804Z,37.00
2019-02-02T19:40:32.560Z,36.87
2019-02-02T19:43:11.212Z,38.07
2019-02-02T19:45:49.881Z,37.87
2019-02-02T19:48:30.044Z,37.40
2019-02-02T19:51:08.454Z,36.87
2019-02-02T19:53:46.811Z,35.50
2019-02-02T19:56:26.263Z,35.20
2019-02-02T19:59:04.147Z,35.50
2019-02-02T20:01:42.656Z,35.60
2019-02-02T20:04:20.536Z,35.57
2019-02-02T20:06:59.003Z,35.60
2019-02-02T20:09:38.151Z,36.43
2019-02-02T20:12:17.215Z,34.63
2019-02-02T20:14:55.734Z,33.13
2019-02-02T20:17:35.823Z,34.07
2019-02-02T20:20:19.227Z,34.00
2019-02-02T20:22:59.209Z,34.33
2019-02-02T20:25:37.972Z,34.40
2019-02-02T20:28:16.665Z,34.50
2019-02-02T20:30:56.331Z,34.63
2019-02-02T20:33:35.824Z,35.63
2019-02-02T20:36:16.374Z,36.17
2019-02-02T20:38:55.738Z,35.23
2019-02-02T20:41:34.052Z,33.97
2019-02-02T20:44:12.397Z,33.77
2019-02-02T20:46:50.488Z,34.37
2019-02-02T20:49:27.668Z,36.07
2019-02-02T20:52:06.264Z,35.77
2019-02-02T20:54:45.335Z,35.80
2019-02-02T20:57:23.425Z,34.90
2019-02-02T21:00:01.409Z,34.80
2019-02-02T21:02:40.327Z,36.00
2019-02-02T21:05:17.746Z,35.40
2019-02-02T21:07:55.930Z,35.63
2019-02-02T21:10:32.719Z,36.07
2019-02-02T21:13:10.264Z,35.90
2019-02-02T21:15:48.227Z,35.80
2019-02-02T21:18:26.978Z,35.67
2019-02-02T21:21:04.928Z,35.50
2019-02-02T21:23:42.079Z,35.30
2019-02-02T21:26:19.091Z,35.33
2019-02-02T21:28:57.208Z,36.70
2019-02-02T21:31:34.415Z,36.30
2019-02-02T21:34:11.420Z,35.90
2019-02-02T21:36:48.239Z,36.00
2019-02-02T21:39:24.403Z,35.47
2019-02-02T21:42:01.692Z,34.23
2019-02-02T21:44:43.332Z,34.17
2019-02-02T21:47:17.342Z,34.07
2019-02-02T21:49:53.340Z,34.37
2019-02-02T21:52:29.031Z,33.73
2019-02-02T21:55:07.205Z,34.30
2019-02-02T21:57:42.868Z,33.90
2019-02-02T22:00:32.187Z,34.00
2019-02-02T22:03:08.311Z,32.60
2019-02-02T22:05:44.248Z,34.80
2019-02-02T22:08:19.209Z,33.67
2019-02-02T22:10:55.351Z,34.23
2019-02-02T22:13:30.507Z,33.57
2019-02-02T22:16:06.195Z,34.73
2019-02-02T22:18:41.468Z,34.10
2019-02-02T22:21:17.175Z,34.20
2019-02-02T22:23:54.756Z,33.50
2019-02-02T22:26:29.307Z,35.03
2019-02-02T22:29:04.547Z,35.20
2019-02-02T22:31:39.889Z,34.87
2019-02-02T22:34:14.773Z,35.17
2019-02-02T22:36:49.599Z,34.93
2019-02-02T22:39:24.403Z,35.23
2019-02-02T22:41:59.307Z,34.83
2019-02-02T22:44:34.152Z,34.60
2019-02-02T22:47:09.275Z,36.13
2019-02-02T22:49:44.113Z,35.90
2019-02-02T22:52:18.992Z,35.93
2019-02-02T22:54:53.736Z,35.93
2019-02-02T22:57:28.524Z,36.07
2019-02-02T23:00:05.321Z,36.67
2019-02-02T23:02:41.951Z,37.07
2019-02-02T23:05:25.979Z,36.47
2019-02-02T23:09:00.542Z,36.60
2019-02-02T23:11:47.987Z,37.17
2019-02-02T23:15:03.442Z,36.80
2019-02-02T23:17:38.303Z,37.33
2019-02-02T23:20:13.186Z,36.10
2019-02-02T23:22:49.132Z,37.07
2019-02-02T23:25:23.863Z,37.73
2019-02-02T23:27:58.708Z,37.60
2019-02-02T23:30:33.435Z,37.23
2019-02-02T23:33:08.178Z,38.27
2019-02-02T23:35:42.983Z,37.53
2019-02-02T23:38:18.171Z,38.50
2019-02-02T23:40:52.974Z,38.17
2019-02-02T23:43:27.712Z,37.43
2019-02-02T23:46:02.601Z,36.60
2019-02-02T23:48:37.612Z,37.47
2019-02-02T23:51:12.505Z,37.23
2019-02-02T23:53:47.300Z,38.03
2019-02-02T23:56:22.124Z,37.63
2019-02-02T23:58:57.003Z,36.37
